Pingtan, China
Current Conditions -  °F | °C
As of 2:00 AM on Wednesday 22 Oct 2014 (Local Time) from ZSFZ Reporting Station
Haze Haze  
Wind Chill: 75°   Ceiling: Unl
Heat Index: 75°   Visibility: 1.8mi
Dew Point: 72°   Wind: 7mph
Humidity: 89%   Direction: 20°NNE
Pressure: 29.94"   Gusts: NA
Location:  25.52°N, 119.78°E
Report Text: ZSFZ 211800Z 02003MPS 2900 BR NSC 24/22 Q1014 NOSIG
Loading
Personal Weather Stations






























Interactive Weather Map
Tropical Storm Tracking
New forecast layout! Learn more

10-Day Weather Forecast

Advertisements
Track Severe Weather on mobile